Time;durP1;ratioP1;P1;durP2;ratioP2;P2;SDS_P1;SDS_P2;PMS_P1;PMS_P2;Temp;Humidity;BMP_temperature;BMP_pressure;BME280_temperature;BME280_humidity;BME280_pressure;Samples;Min_cycle;Max_cycle;Signal;HPM_P1;HPM_P2
2022/01/13 00:02:20;;;;;;;268.60;39.83;;;;;;;0.98;100.00;104147.47;5066025;28;20380;-59
2022/01/13 00:04:46;;;;;;;225.27;40.30;;;;;;;0.98;100.00;104142.25;5068145;28;20028;-60
2022/01/13 00:07:12;;;;;;;270.83;40.83;;;;;;;0.96;100.00;104149.25;5067622;28;20148;-60
2022/01/13 00:09:37;;;;;;;224.57;39.80;;;;;;;0.96;100.00;104150.13;5067060;28;20464;-60
2022/01/13 00:12:03;;;;;;;199.73;38.47;;;;;;;0.98;100.00;104155.31;5067491;28;20267;-59
2022/01/13 00:24:54;;;;;;;274.37;38.87;;;;;;;1.00;100.00;104150.91;5069798;28;20098;-59
2022/01/13 00:27:22;;;;;;;217.60;35.57;;;;;;;1.00;100.00;104158.78;5070986;28;20119;-59
2022/01/13 00:29:48;;;;;;;301.97;35.70;;;;;;;0.95;100.00;104155.38;5071009;28;20024;-60
2022/01/13 00:32:15;;;;;;;188.47;35.63;;;;;;;0.91;100.00;104150.22;5069726;28;20510;-59
2022/01/13 00:34:42;;;;;;;227.43;36.10;;;;;;;0.89;100.00;104146.75;5071779;28;20028;-59
2022/01/13 00:37:07;;;;;;;294.57;36.40;;;;;;;0.84;100.00;104148.56;5071234;28;20025;-60
2022/01/13 00:39:32;;;;;;;256.70;37.00;;;;;;;0.86;100.00;104159.00;5070068;28;20032;-60
2022/01/13 00:41:58;;;;;;;240.40;35.17;;;;;;;0.84;100.00;104147.69;5067706;28;20045;-59
2022/01/13 00:44:23;;;;;;;227.93;36.83;;;;;;;0.84;100.00;104138.09;5071312;28;20486;-59
2022/01/13 00:46:56;;;;;;;241.60;36.57;;;;;;;0.85;100.00;104139.81;5071506;28;20056;-59
2022/01/13 00:49:22;;;;;;;240.60;36.57;;;;;;;0.81;100.00;104124.22;5068524;28;20516;-60
2022/01/13 00:51:47;;;;;;;194.10;35.60;;;;;;;0.81;100.00;104129.44;5071612;28;20119;-60
2022/01/13 00:54:13;;;;;;;185.93;34.73;;;;;;;0.79;100.00;104123.38;5070888;28;20602;-59
2022/01/13 00:56:38;;;;;;;197.70;36.40;;;;;;;0.77;100.00;104125.16;5071261;28;20107;-59
2022/01/13 00:59:07;;;;;;;199.73;35.63;;;;;;;0.75;100.00;104114.72;5069944;28;20032;-59
2022/01/13 01:01:34;;;;;;;182.95;34.13;;;;;;;0.75;100.00;104113.84;5071504;28;20031;-59
2022/01/13 01:04:00;;;;;;;174.90;34.60;;;;;;;0.76;100.00;104105.97;5071503;28;20030;-59
2022/01/13 01:06:25;;;;;;;162.50;35.90;;;;;;;0.78;100.00;104114.66;5070713;28;20110;-58
2022/01/13 01:08:50;;;;;;;190.30;35.40;;;;;;;0.80;100.00;104122.47;5070021;28;20044;-59
2022/01/13 01:11:17;;;;;;;187.80;35.63;;;;;;;0.80;100.00;104123.34;5069513;28;20497;-59
2022/01/13 01:13:42;;;;;;;153.13;33.80;;;;;;;0.80;100.00;104118.13;5070913;28;20078;-60
2022/01/13 01:16:10;;;;;;;167.33;33.97;;;;;;;0.81;100.00;104116.38;5075795;28;20107;-59
2022/01/13 01:19:11;;;;;;;161.47;32.27;;;;;;;0.81;100.00;104117.22;5069602;28;20012;-59
2022/01/13 01:29:10;;;;;;;149.07;32.83;;;;;;;0.87;100.00;104131.97;5067295;28;20033;-60
2022/01/13 01:31:38;;;;;;;162.60;33.73;;;;;;;0.88;100.00;104125.84;5070568;28;20045;-59
2022/01/13 01:36:35;;;;;;;201.97;34.20;;;;;;;0.90;100.00;104121.44;5065117;28;20498;-59
2022/01/13 01:39:02;;;;;;;148.50;33.17;;;;;;;0.92;100.00;104128.38;5069310;28;20024;-59
2022/01/13 01:41:27;;;;;;;157.07;33.17;;;;;;;0.92;100.00;104127.53;5069657;28;20149;-58
2022/01/13 01:43:58;;;;;;;156.70;32.03;;;;;;;0.89;100.00;104130.19;5070131;28;20055;-59
2022/01/13 01:46:26;;;;;;;166.20;32.70;;;;;;;0.89;100.00;104128.44;5068969;28;20039;-59
2022/01/13 01:48:51;;;;;;;192.73;32.53;;;;;;;0.90;100.00;104130.16;5063721;28;20020;-59
2022/01/13 01:51:16;;;;;;;161.63;32.33;;;;;;;0.90;100.00;104127.56;5070044;28;20065;-59
2022/01/13 01:53:42;;;;;;;153.87;31.47;;;;;;;0.89;100.00;104122.34;5071908;28;20028;-59
2022/01/13 01:56:08;;;;;;;171.67;33.27;;;;;;;0.88;100.00;104116.25;5071236;28;20369;-60
2022/01/13 01:58:35;;;;;;;163.53;33.27;;;;;;;0.89;100.00;104117.13;5068602;28;20051;-60
2022/01/13 02:01:00;;;;;;;168.60;33.87;;;;;;;0.89;100.00;104115.34;5068450;28;20020;-59
2022/01/13 02:03:26;;;;;;;167.70;31.37;;;;;;;0.91;100.00;104128.41;5066422;28;20024;-59
2022/01/13 02:05:52;;;;;;;199.17;32.77;;;;;;;0.92;100.00;104115.31;5070277;28;20024;-59
2022/01/13 02:08:18;;;;;;;192.70;33.73;;;;;;;0.93;100.00;104119.63;5068629;28;20388;-59
2022/01/13 02:10:45;;;;;;;196.63;33.47;;;;;;;0.94;100.00;104117.88;5064631;28;20159;-60
2022/01/13 02:13:13;;;;;;;181.00;33.03;;;;;;;0.93;100.00;104113.53;5068591;28;20020;-59
2022/01/13 02:15:59;;;;;;;170.27;32.80;;;;;;;0.93;100.00;104108.31;5069711;28;20411;-59
2022/01/13 02:18:23;;;;;;;157.80;34.00;;;;;;;0.92;100.00;104123.16;5070124;28;20035;-60
2022/01/13 02:20:51;;;;;;;170.33;32.83;;;;;;;0.91;100.00;104110.97;5069639;28;20016;-60
2022/01/13 02:23:35;;;;;;;173.97;33.57;;;;;;;0.93;100.00;104119.63;5070537;28;20095;-59
2022/01/13 02:26:00;;;;;;;201.17;33.00;;;;;;;0.93;100.00;104122.25;5065815;28;20442;-59
2022/01/13 02:28:27;;;;;;;255.37;36.50;;;;;;;0.96;100.00;104130.94;5068558;28;20500;-59
2022/01/13 02:30:52;;;;;;;190.00;35.97;;;;;;;0.96;100.00;104123.94;5066661;28;20051;-59
2022/01/13 02:33:18;;;;;;;233.13;35.77;;;;;;;0.95;100.00;104118.75;5068287;28;20488;-59
2022/01/13 02:35:43;;;;;;;196.77;34.17;;;;;;;0.97;100.00;104122.19;5058387;28;20048;-59
2022/01/13 02:38:12;;;;;;;214.80;33.93;;;;;;;0.98;100.00;104118.69;5069397;28;20073;-59
2022/01/13 02:40:38;;;;;;;263.08;35.13;;;;;;;0.99;100.00;104109.94;5067625;28;20124;-59
2022/01/13 02:43:04;;;;;;;251.93;35.03;;;;;;;1.00;100.00;104111.66;5063477;28;20112;-60
2022/01/13 02:45:37;;;;;;;317.03;36.37;;;;;;;0.99;100.00;104109.94;5069675;28;20358;-59
2022/01/13 02:50:27;;;;;;;244.60;36.47;;;;;;;1.02;100.00;104102.91;5068433;28;20491;-59
2022/01/13 02:52:53;;;;;;;232.67;37.67;;;;;;;1.04;100.00;104106.34;5068868;28;20175;-60
2022/01/13 02:55:18;;;;;;;252.60;36.80;;;;;;;1.03;100.00;104107.25;5069764;28;20027;-60
2022/01/13 02:57:44;;;;;;;282.07;36.63;;;;;;;1.03;100.00;104112.47;5064444;28;20021;-59
2022/01/13 03:00:09;;;;;;;313.57;37.33;;;;;;;1.05;100.00;104113.31;5062215;28;20016;-59
2022/01/13 03:02:34;;;;;;;246.67;36.23;;;;;;;1.07;100.00;104118.50;5068712;28;20491;-59
2022/01/13 03:05:00;;;;;;;274.50;35.87;;;;;;;1.08;100.00;104121.09;5069079;28;20081;-59
2022/01/13 03:07:26;;;;;;;289.83;35.87;;;;;;;1.07;100.00;104103.66;5068355;28;20656;-58
2022/01/13 03:09:52;;;;;;;377.43;38.10;;;;;;;1.12;100.00;104112.28;5066995;28;20055;-59
2022/01/13 03:12:18;;;;;;;303.97;37.07;;;;;;;1.12;100.00;104116.66;5061600;28;20056;-58
2022/01/13 03:14:43;;;;;;;275.00;35.60;;;;;;;1.11;100.00;104117.56;5066591;28;20027;-59
2022/01/13 03:17:09;;;;;;;324.37;37.03;;;;;;;1.11;100.00;104117.56;5064903;28;20464;-58
2022/01/13 03:19:34;;;;;;;357.70;37.70;;;;;;;1.12;100.00;104119.28;5067466;28;20024;-59
2022/01/13 03:22:00;;;;;;;302.07;35.70;;;;;;;1.14;100.00;104117.50;5067978;28;20020;-59
2022/01/13 03:24:26;;;;;;;264.07;35.43;;;;;;;1.14;100.00;104112.25;5068278;28;20149;-59
2022/01/13 03:26:53;;;;;;;322.17;35.90;;;;;;;1.11;100.00;104105.34;5067457;28;20021;-59
2022/01/13 03:29:21;;;;;;;313.33;36.63;;;;;;;1.09;100.00;104103.63;5069204;28;20024;-60
2022/01/13 03:31:46;;;;;;;362.23;36.50;;;;;;;1.07;100.00;104095.81;5065610;28;20017;-59
2022/01/13 03:34:13;;;;;;;236.63;36.53;;;;;;;1.08;100.00;104094.94;5068476;28;20081;-59
2022/01/13 03:36:40;;;;;;;349.23;36.90;;;;;;;1.07;100.00;104094.97;5064815;28;20032;-59
2022/01/13 03:39:07;;;;;;;246.77;34.13;;;;;;;1.06;100.00;104088.00;5067306;28;20429;-60
2022/01/13 03:41:33;;;;;;;278.63;36.83;;;;;;;1.05;100.00;104099.34;5062194;28;20032;-59
2022/01/13 03:44:05;;;;;;;250.13;35.73;;;;;;;1.03;100.00;104088.94;5074294;28;20148;-59
2022/01/13 03:46:30;;;;;;;304.30;36.27;;;;;;;1.01;100.00;104082.84;5067730;28;20555;-60
2022/01/13 03:48:55;;;;;;;235.03;35.83;;;;;;;1.00;100.00;104075.03;5057316;28;20116;-60
2022/01/13 03:51:21;;;;;;;310.33;35.60;;;;;;;0.99;100.00;104076.78;5071369;28;20032;-60
2022/01/13 03:54:25;;;;;;;236.70;35.63;;;;;;;0.99;100.00;104079.41;5066488;28;20137;-60
2022/01/13 03:57:28;;;;;;;286.30;33.73;;;;;;;0.97;100.00;104077.72;5067078;28;20505;-60
2022/01/13 03:59:59;;;;;;;279.77;34.30;;;;;;;0.96;100.00;104079.47;5071054;28;20183;-59
2022/01/13 04:02:25;;;;;;;336.13;37.23;;;;;;;0.98;100.00;104074.22;5063190;28;20290;-60
2022/01/13 04:04:50;;;;;;;312.30;35.30;;;;;;;0.97;100.00;104080.34;5066648;28;20188;-58
2022/01/13 04:07:23;;;;;;;294.13;36.07;;;;;;;0.96;100.00;104082.09;5067939;28;20021;-60
2022/01/13 04:09:49;;;;;;;374.63;37.00;;;;;;;0.95;100.00;104085.59;5067029;28;20033;-59
2022/01/13 04:12:15;;;;;;;258.60;34.67;;;;;;;0.95;100.00;104079.50;5067835;28;20409;-59
2022/01/13 04:17:08;;;;;;;312.60;34.13;;;;;;;0.91;100.00;104082.19;5066720;28;20032;-59
2022/01/13 04:19:33;;;;;;;268.07;35.73;;;;;;;0.89;100.00;104073.50;5066751;28;20024;-58
2022/01/13 04:21:59;;;;;;;236.17;33.13;;;;;;;0.87;100.00;104079.66;5066969;28;20020;-59
2022/01/13 04:24:24;;;;;;;320.33;34.57;;;;;;;0.86;100.00;104067.44;5067966;28;20044;-59
2022/01/13 04:26:49;;;;;;;237.13;32.47;;;;;;;0.85;100.00;104076.16;5067223;28;20499;-59
2022/01/13 04:29:26;;;;;;;224.80;34.30;;;;;;;0.84;100.00;104070.06;5068305;28;20028;-59
2022/01/13 04:31:52;;;;;;;192.10;32.60;;;;;;;0.86;100.00;104078.75;5068125;28;20028;-60
2022/01/13 04:34:18;;;;;;;209.13;33.10;;;;;;;0.85;100.00;104082.25;5067837;28;20079;-60
2022/01/13 04:36:44;;;;;;;180.63;31.67;;;;;;;0.76;100.00;104063.28;5067488;28;20035;-59
2022/01/13 04:39:10;;;;;;;222.33;30.97;;;;;;;0.82;100.00;104068.38;5066381;28;20048;-60
2022/01/13 04:41:38;;;;;;;216.33;32.23;;;;;;;0.81;100.00;104061.44;5067358;28;20038;-59
2022/01/13 04:44:24;;;;;;;182.67;29.73;;;;;;;0.77;100.00;104072.84;5067549;28;20020;-60
2022/01/13 04:46:52;;;;;;;188.30;30.67;;;;;;;0.72;100.00;104069.44;5066955;28;20024;-60
2022/01/13 04:49:19;;;;;;;239.27;30.77;;;;;;;0.71;100.00;104073.81;5069943;28;20024;-59
2022/01/13 04:51:45;;;;;;;229.73;31.30;;;;;;;0.69;100.00;104072.13;5069676;28;20166;-60
2022/01/13 04:54:11;;;;;;;231.50;30.17;;;;;;;0.68;100.00;104067.78;5067617;28;20029;-59
2022/01/13 04:59:14;;;;;;;222.63;30.23;;;;;;;0.67;100.00;104071.28;5061163;28;20111;-60
2022/01/13 05:01:39;;;;;;;273.90;31.03;;;;;;;0.65;100.00;104073.94;5067205;28;20099;-60
2022/01/13 05:04:06;;;;;;;231.03;30.00;;;;;;;0.66;100.00;104072.19;5067749;28;20032;-58
2022/01/13 05:06:32;;;;;;;207.40;29.53;;;;;;;0.64;100.00;104072.22;5067343;28;20025;-59
2022/01/13 05:08:57;;;;;;;248.03;32.73;;;;;;;0.67;100.00;104082.63;5067294;28;20033;-60
2022/01/13 05:11:23;;;;;;;190.20;31.23;;;;;;;0.67;100.00;104072.16;5069695;28;20036;-59
2022/01/13 05:13:49;;;;;;;183.97;30.10;;;;;;;0.68;100.00;104079.09;5070733;28;20032;-59
2022/01/13 05:16:21;;;;;;;190.10;32.47;;;;;;;0.70;100.00;104087.78;5066724;28;20032;-59
2022/01/13 05:18:54;;;;;;;185.13;30.97;;;;;;;0.73;100.00;104084.25;5070226;28;20047;-60
2022/01/13 05:21:23;;;;;;;197.77;30.33;;;;;;;0.71;100.00;104083.41;5070669;28;20029;-59
2022/01/13 05:23:52;;;;;;;284.75;30.77;;;;;;;0.72;100.00;104086.00;5070812;28;20029;-60
2022/01/13 05:26:17;;;;;;;179.47;30.17;;;;;;;0.71;100.00;104083.41;5070778;28;20027;-59
2022/01/13 05:28:42;;;;;;;213.37;31.67;;;;;;;0.48;100.00;104047.19;5067338;28;20146;-59
2022/01/13 05:31:07;;;;;;;177.17;30.77;;;;;;;0.73;100.00;104079.03;5070425;28;20115;-59
2022/01/13 05:33:33;;;;;;;190.40;30.40;;;;;;;0.72;100.00;104083.38;5070652;28;20082;-59
2022/01/13 05:36:00;;;;;;;198.00;30.33;;;;;;;0.72;100.00;104077.28;5070147;28;20033;-60
2022/01/13 05:38:26;;;;;;;204.97;30.07;;;;;;;0.70;100.00;104077.31;5070337;28;20368;-61
2022/01/13 05:40:52;;;;;;;206.43;29.60;;;;;;;0.69;100.00;104078.22;5069244;28;20058;-60
2022/01/13 05:43:17;;;;;;;203.77;30.73;;;;;;;0.66;100.00;104070.44;5070940;28;20012;-60
2022/01/13 05:45:42;;;;;;;177.20;28.90;;;;;;;0.64;100.00;104071.34;5070407;28;20195;-60
2022/01/13 05:48:08;;;;;;;161.27;28.13;;;;;;;0.62;100.00;104074.00;5070561;28;20024;-60
2022/01/13 05:50:33;;;;;;;152.10;29.13;;;;;;;0.62;100.00;104084.44;5072929;28;20079;-61
2022/01/13 05:52:59;;;;;;;171.30;30.40;;;;;;;0.60;100.00;104087.09;5067863;28;20028;-60
2022/01/13 05:55:24;;;;;;;211.23;31.03;;;;;;;0.63;100.00;104069.63;5067245;28;20078;-60
2022/01/13 05:57:50;;;;;;;213.13;29.90;;;;;;;0.64;100.00;104077.44;5069704;28;20103;-60
2022/01/13 06:00:18;;;;;;;220.10;29.67;;;;;;;0.65;100.00;104076.53;5068795;28;20399;-60
2022/01/13 06:02:44;;;;;;;228.90;30.73;;;;;;;0.68;100.00;104083.47;5066752;28;20028;-60
2022/01/13 06:05:10;;;;;;;163.60;28.60;;;;;;;0.63;100.00;104073.09;5069505;28;20032;-59
2022/01/13 06:07:36;;;;;;;313.23;33.73;;;;;;;0.64;100.00;104074.81;5069756;28;20028;-61
2022/01/13 06:10:04;;;;;;;270.13;31.73;;;;;;;0.64;100.00;104076.56;5068156;28;20039;-60
2022/01/13 06:12:34;;;;;;;339.10;33.30;;;;;;;0.65;100.00;104083.53;5068148;28;20055;-60
2022/01/13 06:15:00;;;;;;;240.73;30.38;;;;;;;0.64;100.00;104081.81;5059271;28;20111;-60
2022/01/13 06:17:26;;;;;;;225.40;31.60;;;;;;;0.66;100.00;104080.88;5064362;28;20029;-60
2022/01/13 06:19:51;;;;;;;299.07;32.57;;;;;;;0.65;100.00;104073.06;5066716;28;20449;-60
2022/01/13 06:22:17;;;;;;;251.13;32.83;;;;;;;0.65;100.00;104078.31;5067430;28;20031;-59
2022/01/13 06:24:42;;;;;;;252.03;32.73;;;;;;;0.67;100.00;104080.00;5070239;28;20040;-60
2022/01/13 06:27:07;;;;;;;252.27;32.73;;;;;;;0.69;100.00;104074.75;5069442;28;20040;-61
2022/01/13 06:29:32;;;;;;;237.53;31.40;;;;;;;0.71;100.00;104075.56;5069970;28;20471;-60
2022/01/13 06:31:59;;;;;;;297.00;33.67;;;;;;;0.73;100.00;104079.03;5067993;28;20038;-60
2022/01/13 06:34:24;;;;;;;247.57;30.57;;;;;;;0.72;100.00;104083.38;5064840;28;20402;-60
2022/01/13 06:36:49;;;;;;;233.57;31.77;;;;;;;0.73;100.00;104079.88;5068045;28;20036;-60
2022/01/13 06:39:14;;;;;;;234.83;30.37;;;;;;;0.71;100.00;104073.81;5067500;28;20032;-60
2022/01/13 06:41:40;;;;;;;239.13;30.33;;;;;;;0.71;100.00;104081.66;5068750;28;20032;-61
2022/01/13 06:44:06;;;;;;;228.23;29.10;;;;;;;0.71;100.00;104072.97;5068970;28;20028;-59
2022/01/13 06:46:32;;;;;;;264.13;31.90;;;;;;;0.73;100.00;104082.50;5068330;28;20591;-60
2022/01/13 06:48:57;;;;;;;256.87;30.53;;;;;;;0.71;100.00;104065.97;5067580;28;20407;-60
2022/01/13 06:51:22;;;;;;;247.97;30.47;;;;;;;0.76;100.00;104074.59;5071086;28;20537;-58
2022/01/13 06:53:47;;;;;;;199.23;29.67;;;;;;;0.77;100.00;104067.59;5070134;28;20116;-59
2022/01/13 06:56:13;;;;;;;245.90;30.77;;;;;;;0.78;100.00;104078.03;5069151;28;20545;-60
2022/01/13 06:58:38;;;;;;;226.27;29.00;;;;;;;0.79;100.00;104081.53;5066790;28;20043;-60
2022/01/13 07:01:04;;;;;;;197.03;30.83;;;;;;;0.78;100.00;104078.03;5066781;28;20620;-59
2022/01/13 07:03:29;;;;;;;249.93;29.87;;;;;;;0.80;100.00;104075.41;5066669;28;20039;-59
2022/01/13 07:05:54;;;;;;;213.43;30.27;;;;;;;0.80;100.00;104078.00;5068124;28;20028;-60
2022/01/13 07:08:19;;;;;;;256.20;31.07;;;;;;;0.80;100.00;104075.41;5067857;28;20036;-60
2022/01/13 07:10:45;;;;;;;189.70;29.60;;;;;;;0.81;100.00;104077.13;5064535;28;20033;-60
2022/01/13 07:13:11;;;;;;;255.93;30.87;;;;;;;0.81;100.00;104072.75;5060261;28;20021;-60
2022/01/13 07:15:36;;;;;;;197.37;29.53;;;;;;;0.81;100.00;104066.66;5062919;28;20031;-60
2022/01/13 07:18:02;;;;;;;265.63;32.43;;;;;;;0.84;100.00;104063.97;5068289;28;20060;-60
2022/01/13 07:20:28;;;;;;;212.17;30.93;;;;;;;0.82;100.00;104060.53;5048564;28;20120;-60
2022/01/13 07:22:54;;;;;;;201.90;31.43;;;;;;;0.80;100.00;104064.94;5068646;28;20032;-61
2022/01/13 07:25:19;;;;;;;213.73;30.67;;;;;;;0.81;100.00;104059.66;5066191;28;20036;-60
2022/01/13 07:27:44;;;;;;;212.37;29.50;;;;;;;0.84;100.00;104067.47;5070641;28;20046;-59
2022/01/13 07:30:11;;;;;;;222.97;31.03;;;;;;;0.86;100.00;104067.44;5068884;28;20028;-60
2022/01/13 07:32:40;;;;;;;204.90;30.83;;;;;;;0.82;100.00;104063.16;5068249;28;20036;-59
2022/01/13 07:35:06;;;;;;;186.57;28.77;;;;;;;0.85;100.00;104074.41;5064596;28;20036;-59
2022/01/13 07:37:32;;;;;;;232.03;30.60;;;;;;;0.85;100.00;104063.09;5058607;28;20029;-59
2022/01/13 07:39:57;;;;;;;236.93;30.47;;;;;;;0.85;100.00;104063.94;5063827;28;20032;-61
2022/01/13 07:42:24;;;;;;;171.07;29.00;;;;;;;0.85;100.00;104069.19;5065348;28;20075;-60
2022/01/13 07:44:50;;;;;;;198.87;31.50;;;;;;;0.85;100.00;104066.56;5068406;28;20025;-59
2022/01/13 07:47:15;;;;;;;179.10;29.03;;;;;;;0.84;100.00;104062.22;5067777;28;20036;-59
2022/01/13 07:49:40;;;;;;;199.13;28.87;;;;;;;0.82;100.00;104066.63;5065824;28;20043;-60
2022/01/13 07:52:06;;;;;;;175.37;28.37;;;;;;;0.83;100.00;104075.34;5063459;28;20036;-60
2022/01/13 07:54:31;;;;;;;179.27;27.57;;;;;;;0.83;100.00;104073.59;5067402;28;20045;-60
2022/01/13 07:56:58;;;;;;;225.47;27.67;;;;;;;0.83;100.00;104084.03;5067243;28;20021;-59
2022/01/13 07:59:28;;;;;;;219.70;27.50;;;;;;;0.88;100.00;104084.84;5065963;28;20033;-59
2022/01/13 08:02:00;;;;;;;186.93;24.60;;;;;;;0.88;100.00;104087.47;5067835;28;20531;-59
2022/01/13 08:04:25;;;;;;;213.30;26.20;;;;;;;0.89;100.00;104091.81;5064568;28;20039;-59
2022/01/13 08:06:51;;;;;;;207.97;26.07;;;;;;;0.91;100.00;104097.00;5066209;28;20021;-59
2022/01/13 08:09:16;;;;;;;258.13;26.70;;;;;;;0.87;100.00;104088.38;5060248;28;20498;-59
2022/01/13 08:12:22;;;;;;;144.03;23.50;;;;;;;0.88;100.00;104090.09;5068073;28;20476;-59
2022/01/13 08:14:53;;;;;;;222.53;26.77;;;;;;;0.88;100.00;104091.84;5064830;28;20046;-59
2022/01/13 08:20:07;;;;;;;148.50;25.13;;;;;;;0.86;100.00;104093.59;5057642;28;20048;-60
2022/01/13 08:22:48;;;;;;;206.87;25.97;;;;;;;0.87;100.00;104101.44;5067511;28;20035;-59
2022/01/13 08:25:17;;;;;;;143.77;25.03;;;;;;;0.87;100.00;104096.22;5048116;28;20044;-59
2022/01/13 08:27:54;;;;;;;186.37;24.83;;;;;;;0.89;100.00;104093.56;5039109;28;20052;-59
2022/01/13 08:30:25;;;;;;;141.60;23.47;;;;;;;0.90;100.00;104109.22;5050849;28;20141;-59
2022/01/13 08:33:10;;;;;;;178.37;25.13;;;;;;;0.89;100.00;104104.88;5067927;28;20044;-59
2022/01/13 08:35:43;;;;;;;143.33;25.17;;;;;;;0.89;100.00;104104.88;5053092;28;20035;-59
2022/01/13 08:38:16;;;;;;;196.77;23.77;;;;;;;0.90;100.00;104114.47;5018593;28;20045;-59
2022/01/13 08:40:46;;;;;;;176.47;24.47;;;;;;;0.92;100.00;104112.69;5036502;28;20178;-60
2022/01/13 08:43:14;;;;;;;192.77;25.43;;;;;;;0.95;100.00;104111.75;5067545;28;20524;-59
2022/01/13 08:45:41;;;;;;;186.47;26.27;;;;;;;0.96;100.00;104110.88;5069580;28;20480;-59
2022/01/13 08:48:06;;;;;;;175.63;26.10;;;;;;;0.98;100.00;104121.31;5037141;28;20413;-60
2022/01/13 08:50:32;;;;;;;176.07;25.63;;;;;;;0.96;100.00;104110.00;5075321;28;20582;-59
2022/01/13 08:52:59;;;;;;;223.07;25.77;;;;;;;1.00;100.00;104123.00;5071194;28;20024;-59
2022/01/13 08:55:25;;;;;;;143.93;25.07;;;;;;;0.95;100.00;104113.50;5071635;28;20035;-60
2022/01/13 08:57:52;;;;;;;156.23;24.43;;;;;;;1.02;100.00;104115.97;5071985;28;20025;-60
2022/01/13 09:00:17;;;;;;;159.43;24.73;;;;;;;1.01;100.00;104129.97;5071009;28;20029;-59
2022/01/13 09:02:43;;;;;;;148.37;25.33;;;;;;;0.98;100.00;104119.56;5071957;28;20028;-59
2022/01/13 09:05:11;;;;;;;148.10;24.77;;;;;;;1.04;100.00;104136.88;5071766;28;20024;-58
2022/01/13 09:07:36;;;;;;;147.97;23.60;;;;;;;1.05;100.00;104125.53;5072095;28;20025;-59
2022/01/13 09:10:01;;;;;;;164.87;24.03;;;;;;;1.08;100.00;104130.72;5071406;28;20032;-60
2022/01/13 09:12:27;;;;;;;180.07;26.67;;;;;;;1.06;100.00;104122.03;5071299;28;20093;-60
2022/01/13 09:14:58;;;;;;;175.30;27.57;;;;;;;1.07;100.00;104127.22;5070586;28;20055;-59
2022/01/13 09:17:24;;;;;;;159.90;27.00;;;;;;;1.09;100.00;104128.06;5071886;28;20028;-59
2022/01/13 09:19:51;;;;;;;165.93;28.50;;;;;;;1.11;100.00;104128.03;5070575;28;20041;-59
2022/01/13 09:22:17;;;;;;;143.80;26.57;;;;;;;1.11;100.00;104130.66;5071736;28;20025;-59
2022/01/13 09:24:43;;;;;;;194.73;25.00;;;;;;;1.11;100.00;104128.03;5071773;28;20024;-59
2022/01/13 09:27:08;;;;;;;209.07;26.70;;;;;;;1.14;100.00;104127.97;5071083;28;20101;-59
2022/01/13 09:29:34;;;;;;;193.87;26.73;;;;;;;1.13;100.00;104124.47;5079498;28;20036;-60
2022/01/13 09:31:59;;;;;;;146.20;26.97;;;;;;;1.11;100.00;104126.28;5071393;28;20078;-59
2022/01/13 09:34:25;;;;;;;184.83;26.87;;;;;;;1.11;100.00;104125.41;5071637;28;20522;-59
2022/01/13 09:36:50;;;;;;;127.70;24.50;;;;;;;1.11;100.00;104123.66;5071568;28;20384;-59
2022/01/13 09:39:15;;;;;;;138.13;25.60;;;;;;;1.11;100.00;104126.28;5070239;28;20048;-60
2022/01/13 09:41:43;;;;;;;149.17;25.30;;;;;;;1.10;100.00;104123.69;5070880;28;20602;-59
2022/01/13 09:44:10;;;;;;;186.97;25.37;;;;;;;1.14;100.00;104130.59;5062029;28;20040;-59
2022/01/13 09:46:36;;;;;;;164.53;26.33;;;;;;;1.16;100.00;104131.44;5068217;28;20020;-59
2022/01/13 09:49:05;;;;;;;168.03;26.63;;;;;;;1.19;100.00;104142.72;5070873;28;20449;-59
2022/01/13 09:51:32;;;;;;;201.60;27.47;;;;;;;1.20;100.00;104133.13;5073624;28;20055;-59
2022/01/13 09:53:57;;;;;;;191.73;26.93;;;;;;;1.22;100.00;104142.66;5070886;28;20033;-59
2022/01/13 09:56:23;;;;;;;166.80;24.70;;;;;;;1.24;100.00;104137.41;5070719;28;20032;-59
2022/01/13 09:58:48;;;;;;;192.13;28.10;;;;;;;1.27;100.00;104139.94;5068936;28;20077;-59
2022/01/13 10:01:14;;;;;;;175.20;26.47;;;;;;;1.29;100.00;104145.16;5070778;28;20483;-60
2022/01/13 10:03:40;;;;;;;177.63;27.47;;;;;;;1.30;100.00;104139.03;5070274;28;20024;-59
2022/01/13 10:06:10;;;;;;;170.00;27.50;;;;;;;1.24;100.00;104127.78;5071167;28;20035;-59
2022/01/13 10:08:54;;;;;;;177.13;26.07;;;;;;;1.30;100.00;104141.66;5057777;28;20029;-58
2022/01/13 10:11:42;;;;;;;179.90;27.27;;;;;;;1.32;100.00;104148.56;5070472;28;20035;-59
2022/01/13 10:14:17;;;;;;;160.63;27.47;;;;;;;1.31;100.00;104143.38;5066997;28;20040;-58
2022/01/13 10:16:50;;;;;;;198.70;27.30;;;;;;;1.31;100.00;104139.00;5059149;28;20557;-59
2022/01/13 10:19:37;;;;;;;250.07;29.30;;;;;;;1.35;100.00;104142.41;5069771;28;20132;-58
2022/01/13 10:22:09;;;;;;;213.60;27.90;;;;;;;1.37;100.00;104141.47;5062634;28;20043;-59
2022/01/13 10:24:37;;;;;;;237.80;28.77;;;;;;;1.37;100.00;104136.25;5057640;28;20028;-59
2022/01/13 10:27:04;;;;;;;250.10;29.57;;;;;;;1.39;100.00;104134.47;5070363;28;20028;-59
2022/01/13 10:29:47;;;;;;;223.37;28.17;;;;;;;1.41;100.00;104137.03;5078376;28;20082;-59
2022/01/13 10:32:16;;;;;;;197.00;30.47;;;;;;;1.45;100.00;104137.00;5070009;28;20024;-59
2022/01/13 10:34:44;;;;;;;152.80;27.95;;;;;;;1.43;100.00;104138.75;5070390;28;20029;-60
2022/01/13 10:37:14;;;;;;;189.83;28.80;;;;;;;1.43;100.00;104135.25;5070014;28;20111;-59
2022/01/13 10:39:43;;;;;;;;;;;;;;;1.43;100.00;104128.25;5069524;28;20483;-60
2022/01/13 10:42:20;;;;;;;169.65;30.77;;;;;;;1.41;100.00;104132.66;5069667;28;20367;-60
2022/01/13 10:44:53;;;;;;;193.97;28.37;;;;;;;1.40;100.00;104130.94;5069890;28;20115;-60
2022/01/13 10:47:18;;;;;;;165.00;29.70;;;;;;;1.38;100.00;104132.75;5070182;28;20024;-59
2022/01/13 10:49:47;;;;;;;168.00;29.23;;;;;;;1.38;100.00;104124.03;5072534;28;20028;-59
2022/01/13 10:52:24;;;;;;;158.80;29.00;;;;;;;1.42;100.00;104118.69;5070189;28;20028;-59
2022/01/13 10:54:59;;;;;;;201.53;31.90;;;;;;;1.43;100.00;104119.53;5070047;28;20107;-60
2022/01/13 10:57:25;;;;;;;214.77;30.17;;;;;;;1.43;100.00;104114.31;5070038;28;20434;-60
2022/01/13 10:59:51;;;;;;;184.37;30.50;;;;;;;1.45;100.00;104120.41;5068561;28;20619;-59
2022/01/13 11:02:21;;;;;;;216.93;29.77;;;;;;;1.41;100.00;104113.47;5069687;28;20269;-60
2022/01/13 11:04:47;;;;;;;168.87;29.70;;;;;;;1.41;100.00;104103.88;5069329;28;20043;-59
2022/01/13 11:07:18;;;;;;;210.70;30.50;;;;;;;1.45;100.00;104107.31;5069390;28;20475;-59
2022/01/13 11:09:52;;;;;;;176.23;30.93;;;;;;;1.50;100.00;104108.94;5068314;28;20460;-59
2022/01/13 11:12:30;;;;;;;211.73;31.93;;;;;;;1.53;100.00;104108.00;5069683;28;20112;-60
2022/01/13 11:15:04;;;;;;;208.60;32.73;;;;;;;1.54;100.00;104102.75;5069588;28;20028;-59
2022/01/13 11:17:29;;;;;;;206.07;34.20;;;;;;;1.58;100.00;104105.28;5069011;28;20023;-59
2022/01/13 11:19:56;;;;;;;173.77;31.80;;;;;;;1.62;100.00;104101.72;5067855;28;20036;-59
2022/01/13 11:22:22;;;;;;;176.03;29.77;;;;;;;1.63;100.00;104104.28;5064310;28;20125;-60
2022/01/13 11:24:48;;;;;;;217.20;33.37;;;;;;;1.68;100.00;104104.19;5067724;28;20387;-59
2022/01/13 11:27:19;;;;;;;181.37;32.83;;;;;;;1.68;100.00;104093.72;5060351;28;20025;-60
2022/01/13 11:29:46;;;;;;;221.10;33.80;;;;;;;1.66;100.00;104096.38;5068656;28;20020;-60
2022/01/13 11:32:14;;;;;;;211.40;33.80;;;;;;;1.68;100.00;104089.34;5068788;28;20028;-59
2022/01/13 11:34:40;;;;;;;192.77;33.10;;;;;;;1.74;100.00;104091.00;5068132;28;20264;-60
2022/01/13 11:37:06;;;;;;;184.23;33.67;;;;;;;1.74;100.00;104084.00;5067399;28;20180;-59